createdAt,value
2019-03-10T00:00:35.834Z,11.10
2019-03-10T00:03:05.648Z,11.10
2019-03-10T00:05:35.053Z,11.00
2019-03-10T00:08:04.559Z,11.00
2019-03-10T00:10:33.938Z,11.00
2019-03-10T00:13:03.325Z,10.90
2019-03-10T00:15:32.924Z,10.90
2019-03-10T00:18:02.325Z,10.90
2019-03-10T00:20:31.705Z,11.00
2019-03-10T00:23:01.072Z,11.10
2019-03-10T00:25:30.505Z,11.10
2019-03-10T00:27:59.891Z,11.10
2019-03-10T00:30:29.328Z,11.10
2019-03-10T00:32:58.720Z,11.20
2019-03-10T00:35:28.109Z,11.20
2019-03-10T00:37:57.633Z,11.10
2019-03-10T00:40:51.240Z,11.10
2019-03-10T00:43:32.324Z,11.10
2019-03-10T00:46:21.291Z,11.20
2019-03-10T00:49:16.527Z,11.20
2019-03-10T00:52:01.158Z,11.20
2019-03-10T00:54:30.633Z,11.20
2019-03-10T00:57:00.157Z,11.20
2019-03-10T00:59:29.614Z,11.20
2019-03-10T01:01:58.986Z,11.20
2019-03-10T01:04:28.435Z,11.20
2019-03-10T01:06:57.937Z,11.20
2019-03-10T01:09:27.351Z,11.20
2019-03-10T01:11:56.873Z,11.20
2019-03-10T01:14:26.259Z,11.20
2019-03-10T01:16:56.460Z,11.20
2019-03-10T01:19:26.638Z,11.20
2019-03-10T01:21:58.116Z,11.20
2019-03-10T01:24:29.542Z,11.20
2019-03-10T01:26:58.947Z,11.20
2019-03-10T01:29:28.373Z,11.10
2019-03-10T01:32:12.994Z,11.10
2019-03-10T01:34:45.452Z,11.10
2019-03-10T01:37:14.811Z,11.10
2019-03-10T01:39:44.213Z,11.10
2019-03-10T01:42:13.617Z,11.10
2019-03-10T01:44:42.971Z,11.00
2019-03-10T01:47:12.368Z,11.00
2019-03-10T01:49:41.759Z,10.90
2019-03-10T01:52:11.151Z,10.90
2019-03-10T01:54:40.586Z,10.90
2019-03-10T01:57:09.968Z,10.90
2019-03-10T01:59:39.341Z,11.00
2019-03-10T02:02:08.745Z,11.00
2019-03-10T02:04:38.147Z,10.90
2019-03-10T02:07:07.581Z,10.90
2019-03-10T02:09:37.418Z,10.90
2019-03-10T02:12:08.543Z,10.90
2019-03-10T02:14:37.959Z,10.90
2019-03-10T02:17:10.359Z,10.90
2019-03-10T02:19:39.815Z,10.90
2019-03-10T02:22:09.192Z,10.80
2019-03-10T02:24:38.653Z,10.70
2019-03-10T02:27:08.104Z,10.60
2019-03-10T02:29:37.481Z,10.50
2019-03-10T02:32:06.985Z,10.50
2019-03-10T02:34:38.089Z,10.50
2019-03-10T02:37:07.580Z,10.60
2019-03-10T02:39:37.273Z,10.60
2019-03-10T02:42:06.987Z,10.60
2019-03-10T02:44:36.362Z,10.50
2019-03-10T02:47:05.813Z,10.50
2019-03-10T02:49:35.183Z,10.50
2019-03-10T02:52:04.889Z,10.60
2019-03-10T02:54:34.490Z,10.60
2019-03-10T02:57:04.245Z,10.50
2019-03-10T02:59:33.744Z,10.50
2019-03-10T03:02:03.217Z,10.50
2019-03-10T03:04:32.546Z,10.50
2019-03-10T03:07:01.919Z,10.50
2019-03-10T03:09:31.313Z,10.50
2019-03-10T03:12:00.763Z,10.50
2019-03-10T03:14:30.210Z,10.50
2019-03-10T03:16:59.576Z,10.50
2019-03-10T03:19:28.956Z,10.50
2019-03-10T03:21:58.251Z,10.50
2019-03-10T03:24:27.640Z,10.50
2019-03-10T03:26:57.002Z,10.50
2019-03-10T03:29:26.391Z,10.50
2019-03-10T03:31:55.752Z,10.50
2019-03-10T03:34:25.145Z,10.50
2019-03-10T03:36:54.518Z,10.50
2019-03-10T03:39:29.843Z,10.40
2019-03-10T03:41:59.253Z,10.40
2019-03-10T03:44:28.678Z,10.30
2019-03-10T03:46:58.161Z,10.30
2019-03-10T03:49:27.577Z,10.20
2019-03-10T03:51:56.973Z,10.10
2019-03-10T03:54:26.358Z,10.10
2019-03-10T03:56:55.795Z,10.00
2019-03-10T03:59:25.157Z,9.90
2019-03-10T04:01:59.027Z,9.90
2019-03-10T04:04:28.392Z,10.00
2019-03-10T04:06:57.791Z,9.90
2019-03-10T04:09:27.088Z,9.90
2019-03-10T04:11:56.453Z,9.80
2019-03-10T04:14:25.841Z,9.80
2019-03-10T04:16:55.193Z,9.70
2019-03-10T04:19:24.582Z,9.70
2019-03-10T04:21:54.011Z,9.70
2019-03-10T04:24:23.385Z,9.70
2019-03-10T04:26:52.793Z,9.70
2019-03-10T04:29:22.174Z,9.70
2019-03-10T04:31:51.543Z,9.70
2019-03-10T04:34:20.942Z,9.70
2019-03-10T04:36:50.325Z,9.70
2019-03-10T04:39:19.763Z,9.60
2019-03-10T04:41:49.138Z,9.70
2019-03-10T04:44:18.494Z,9.70
2019-03-10T04:46:47.877Z,9.60
2019-03-10T04:49:17.309Z,9.60
2019-03-10T04:51:46.742Z,9.60
2019-03-10T04:54:17.744Z,9.60
2019-03-10T04:56:48.757Z,9.60
2019-03-10T04:59:18.125Z,9.50
2019-03-10T05:01:47.491Z,9.50
2019-03-10T05:04:16.867Z,9.50
2019-03-10T05:06:46.222Z,9.40
2019-03-10T05:09:15.608Z,9.30
2019-03-10T05:11:44.965Z,9.40
2019-03-10T05:14:14.351Z,9.40
2019-03-10T05:16:43.714Z,9.40
2019-03-10T05:19:13.111Z,9.40
2019-03-10T05:21:42.480Z,9.40
2019-03-10T05:24:11.876Z,9.40
2019-03-10T05:26:44.334Z,9.40
2019-03-10T05:29:13.711Z,9.40
2019-03-10T05:31:43.080Z,9.40
2019-03-10T05:34:12.644Z,9.50
2019-03-10T05:36:42.023Z,9.40
2019-03-10T05:39:11.383Z,9.40
2019-03-10T05:41:40.761Z,9.40
2019-03-10T05:44:10.122Z,9.40
2019-03-10T05:46:39.493Z,9.40
2019-03-10T05:49:08.857Z,9.40
2019-03-10T05:51:38.246Z,9.50
2019-03-10T05:54:07.621Z,9.40
2019-03-10T05:56:37.010Z,9.40
2019-03-10T05:59:06.375Z,9.50
2019-03-10T06:01:35.779Z,9.40
2019-03-10T06:04:05.215Z,9.40
2019-03-10T06:06:34.593Z,9.40
2019-03-10T06:09:05.611Z,9.40
2019-03-10T06:11:34.976Z,9.40
2019-03-10T06:14:04.348Z,9.40
2019-03-10T06:16:33.715Z,9.40
2019-03-10T06:19:03.113Z,9.40
2019-03-10T06:21:32.471Z,9.40
2019-03-10T06:24:01.919Z,9.40
2019-03-10T06:26:31.303Z,9.40
2019-03-10T06:29:00.731Z,9.40
2019-03-10T06:31:30.087Z,9.40
2019-03-10T06:33:59.466Z,9.40
2019-03-10T06:36:28.840Z,9.40
2019-03-10T06:38:58.201Z,9.40
2019-03-10T06:41:27.585Z,9.40
2019-03-10T06:43:56.952Z,9.40
2019-03-10T06:46:26.262Z,9.40
2019-03-10T06:48:55.622Z,9.40
2019-03-10T06:51:24.993Z,9.40
2019-03-10T06:53:54.364Z,9.50
2019-03-10T06:56:23.769Z,9.50
2019-03-10T06:58:53.142Z,9.50
2019-03-10T07:01:22.512Z,9.60
2019-03-10T07:03:51.897Z,9.60
2019-03-10T07:06:21.254Z,9.60
2019-03-10T07:08:50.628Z,9.60
2019-03-10T07:11:20.017Z,9.70
2019-03-10T07:13:49.395Z,9.70
2019-03-10T07:16:19.133Z,9.70
2019-03-10T07:18:48.541Z,9.80
2019-03-10T07:21:17.904Z,9.80
2019-03-10T07:23:47.287Z,9.90
2019-03-10T07:26:16.650Z,9.90
2019-03-10T07:28:59.929Z,9.90
2019-03-10T07:31:46.196Z,9.90
2019-03-10T07:34:22.691Z,10.00
2019-03-10T07:37:02.590Z,10.10
2019-03-10T07:39:36.088Z,10.20
2019-03-10T07:42:07.099Z,10.20
2019-03-10T07:44:38.162Z,10.30
2019-03-10T07:47:09.221Z,10.40
2019-03-10T07:49:43.232Z,10.50
2019-03-10T07:52:20.715Z,10.50
2019-03-10T07:55:11.771Z,10.60
2019-03-10T07:57:58.907Z,10.60
2019-03-10T08:00:38.797Z,10.60
2019-03-10T08:03:12.527Z,10.70
2019-03-10T08:06:01.927Z,10.70
2019-03-10T08:08:47.920Z,10.80
2019-03-10T08:11:21.738Z,10.90
2019-03-10T08:13:55.197Z,10.90
2019-03-10T08:16:38.177Z,11.00
2019-03-10T08:19:09.195Z,11.10
2019-03-10T08:21:46.241Z,11.10
2019-03-10T08:24:17.259Z,11.20
2019-03-10T08:26:53.813Z,11.40
2019-03-10T08:29:30.899Z,11.40
2019-03-10T08:32:13.507Z,11.50
2019-03-10T08:34:50.500Z,11.60
2019-03-10T08:37:24.255Z,11.70
2019-03-10T08:39:55.276Z,12.00
2019-03-10T08:42:44.707Z,12.10
2019-03-10T08:45:18.961Z,12.20
2019-03-10T08:47:50.011Z,12.40
2019-03-10T08:50:39.100Z,12.50
2019-03-10T08:53:26.565Z,12.50
2019-03-10T08:56:09.311Z,12.60
2019-03-10T08:58:48.919Z,12.70
2019-03-10T09:01:22.628Z,12.40
2019-03-10T09:03:59.450Z,12.20
2019-03-10T09:06:39.363Z,12.20
2019-03-10T09:09:13.162Z,12.30
2019-03-10T09:11:44.167Z,12.20
2019-03-10T09:14:17.975Z,12.30
2019-03-10T09:16:51.544Z,12.20
2019-03-10T09:19:22.592Z,12.30
2019-03-10T09:21:53.601Z,12.30
2019-03-10T09:24:36.564Z,12.20
2019-03-10T09:27:07.620Z,12.30
2019-03-10T09:29:49.422Z,12.70
2019-03-10T09:32:20.435Z,12.90
2019-03-10T09:35:06.570Z,13.10
2019-03-10T09:37:53.755Z,13.70
2019-03-10T09:40:42.858Z,14.30
2019-03-10T09:43:13.873Z,14.40
2019-03-10T09:45:56.912Z,14.50
2019-03-10T09:48:40.074Z,14.60
2019-03-10T09:51:31.037Z,14.60
2019-03-10T09:54:18.295Z,14.30
2019-03-10T09:56:49.325Z,14.40
2019-03-10T09:59:30.175Z,14.50
2019-03-10T10:02:01.250Z,14.50
2019-03-10T10:04:32.284Z,14.70
2019-03-10T10:07:06.284Z,14.70
2019-03-10T10:09:37.317Z,14.90
2019-03-10T10:12:20.205Z,15.10
2019-03-10T10:14:51.271Z,15.40
2019-03-10T10:17:27.766Z,15.50
2019-03-10T10:19:58.900Z,15.40
2019-03-10T10:22:46.479Z,15.20
2019-03-10T10:25:17.551Z,15.00
2019-03-10T10:27:48.666Z,14.90
2019-03-10T10:30:35.007Z,14.90
2019-03-10T10:33:06.046Z,15.10
2019-03-10T10:35:45.861Z,15.10
2019-03-10T10:38:31.845Z,15.00
2019-03-10T10:41:09.126Z,15.10
2019-03-10T10:43:52.295Z,15.00
2019-03-10T10:46:29.314Z,15.20
2019-03-10T10:49:00.407Z,15.10
2019-03-10T10:51:37.108Z,15.00
2019-03-10T10:54:26.133Z,14.90
2019-03-10T10:56:59.903Z,15.00
2019-03-10T10:59:39.650Z,15.20
2019-03-10T11:02:19.335Z,15.50
2019-03-10T11:04:59.147Z,15.30
2019-03-10T11:07:30.153Z,15.00
2019-03-10T11:10:13.051Z,15.70
2019-03-10T11:12:46.518Z,16.50
2019-03-10T11:15:20.355Z,17.00
2019-03-10T11:17:51.368Z,16.40
2019-03-10T11:20:22.390Z,17.90
2019-03-10T11:23:11.469Z,18.10
2019-03-10T11:25:43.067Z,19.00
2019-03-10T11:28:16.774Z,18.90
2019-03-10T11:30:50.572Z,18.60
2019-03-10T11:33:30.261Z,19.40
2019-03-10T11:36:04.325Z,19.60
2019-03-10T11:38:44.050Z,20.30
2019-03-10T11:41:33.807Z,20.30
2019-03-10T11:43:59.783Z,19.90
2019-03-10T11:46:30.961Z,20.10
2019-03-10T11:49:13.563Z,20.00
2019-03-10T11:52:02.644Z,20.30
2019-03-10T11:54:33.598Z,19.00
2019-03-10T11:57:10.929Z,16.90
2019-03-10T11:59:47.744Z,15.90
2019-03-10T12:02:35.302Z,15.50
2019-03-10T12:05:11.652Z,15.70
2019-03-10T12:07:52.160Z,16.00
2019-03-10T12:10:21.757Z,15.70
2019-03-10T12:12:51.115Z,15.50
2019-03-10T12:15:20.598Z,15.90
2019-03-10T12:17:49.959Z,16.10
2019-03-10T12:20:19.443Z,16.10
2019-03-10T12:22:49.018Z,16.90
2019-03-10T12:25:18.404Z,17.00
2019-03-10T12:27:47.812Z,17.50
2019-03-10T12:30:17.273Z,17.10
2019-03-10T12:32:46.949Z,16.90
2019-03-10T12:35:16.438Z,18.30
2019-03-10T12:37:45.799Z,20.20
2019-03-10T12:40:15.413Z,21.00
2019-03-10T12:42:44.797Z,19.80
2019-03-10T12:45:14.169Z,19.90
2019-03-10T12:47:43.570Z,19.60
2019-03-10T12:50:14.076Z,19.50
2019-03-10T12:52:43.483Z,18.70
2019-03-10T12:55:12.913Z,19.70
2019-03-10T12:57:42.332Z,20.60
2019-03-10T13:00:17.645Z,20.60
2019-03-10T13:02:47.143Z,20.80
2019-03-10T13:05:16.762Z,21.70
2019-03-10T13:07:46.145Z,21.80
2019-03-10T13:10:15.514Z,21.60
2019-03-10T13:12:44.902Z,21.00
2019-03-10T13:15:14.451Z,18.60
2019-03-10T13:17:43.908Z,18.30
2019-03-10T13:20:13.445Z,17.80
2019-03-10T13:22:42.842Z,18.40
2019-03-10T13:25:13.366Z,18.90
2019-03-10T13:27:42.822Z,19.30
2019-03-10T13:30:14.199Z,20.20
2019-03-10T13:32:44.672Z,19.60
2019-03-10T13:35:14.457Z,19.20
2019-03-10T13:37:43.891Z,19.80
2019-03-10T13:40:14.621Z,19.90
2019-03-10T13:42:43.982Z,19.50
2019-03-10T13:45:18.055Z,18.40
2019-03-10T13:47:47.560Z,17.90
2019-03-10T13:50:17.322Z,18.90
2019-03-10T13:52:46.638Z,19.30
2019-03-10T13:55:16.087Z,18.10
2019-03-10T13:57:45.484Z,17.80
2019-03-10T14:00:26.338Z,17.50
2019-03-10T14:02:55.928Z,18.50
2019-03-10T14:05:25.322Z,18.90
2019-03-10T14:07:54.778Z,20.30
2019-03-10T14:10:24.224Z,20.80
2019-03-10T14:12:53.621Z,19.90
2019-03-10T14:15:23.055Z,17.90
2019-03-10T14:18:12.065Z,17.80
2019-03-10T14:20:42.158Z,18.20
2019-03-10T14:23:11.540Z,18.60
2019-03-10T14:25:40.919Z,18.40
2019-03-10T14:28:10.283Z,18.20
2019-03-10T14:30:39.679Z,18.60
2019-03-10T14:33:09.129Z,19.10
2019-03-10T14:35:40.141Z,17.50
2019-03-10T14:38:09.514Z,17.10
2019-03-10T14:40:39.056Z,18.10
2019-03-10T14:43:08.489Z,18.50
2019-03-10T14:45:37.941Z,17.90
2019-03-10T14:48:07.391Z,17.10
2019-03-10T14:50:36.820Z,16.40
2019-03-10T14:53:06.829Z,15.90
2019-03-10T14:55:36.213Z,15.50
2019-03-10T14:58:05.641Z,15.90
2019-03-10T15:00:35.046Z,16.20
2019-03-10T15:03:04.518Z,15.50
2019-03-10T15:05:33.884Z,16.90
2019-03-10T15:08:03.346Z,16.60
2019-03-10T15:10:32.703Z,16.40
2019-03-10T15:13:02.157Z,17.20
2019-03-10T15:15:31.575Z,18.50
2019-03-10T15:18:02.820Z,17.50
2019-03-10T15:20:32.032Z,17.70
2019-03-10T15:23:01.410Z,18.10
2019-03-10T15:25:30.803Z,17.70
2019-03-10T15:28:01.807Z,17.00
2019-03-10T15:30:31.258Z,15.70
2019-03-10T15:33:00.618Z,14.70
2019-03-10T15:35:30.015Z,15.30
2019-03-10T15:37:59.395Z,14.90
2019-03-10T15:40:28.777Z,15.10
2019-03-10T15:42:58.216Z,15.10
2019-03-10T15:45:28.092Z,14.80
2019-03-10T15:47:57.839Z,15.40
2019-03-10T15:50:29.410Z,17.20
2019-03-10T15:52:58.857Z,17.40
2019-03-10T15:55:28.257Z,17.60
2019-03-10T15:57:57.620Z,16.30
2019-03-10T16:00:27.960Z,14.70
2019-03-10T16:02:57.474Z,13.90
2019-03-10T16:05:26.942Z,13.80
2019-03-10T16:07:56.375Z,13.40
2019-03-10T16:10:25.765Z,13.20
2019-03-10T16:12:55.130Z,13.20
2019-03-10T16:15:29.574Z,13.20
2019-03-10T16:17:58.958Z,13.10
2019-03-10T16:20:28.409Z,13.00
2019-03-10T16:22:57.755Z,12.90
2019-03-10T16:25:29.162Z,12.80
2019-03-10T16:27:58.539Z,12.80
2019-03-10T16:30:29.053Z,12.70
2019-03-10T16:32:58.455Z,12.60
2019-03-10T16:35:27.821Z,12.60
2019-03-10T16:37:57.210Z,12.60
2019-03-10T16:40:26.574Z,12.60
2019-03-10T16:42:56.067Z,12.40
2019-03-10T16:45:30.839Z,12.40
2019-03-10T16:47:58.742Z,12.30
2019-03-10T16:50:29.061Z,12.30
2019-03-10T16:52:58.522Z,12.30
2019-03-10T16:55:27.972Z,12.20
2019-03-10T16:57:57.342Z,12.10
2019-03-10T17:00:26.725Z,12.10
2019-03-10T17:02:56.083Z,12.00
2019-03-10T17:05:25.607Z,11.90
2019-03-10T17:07:55.047Z,11.90
2019-03-10T17:10:27.494Z,11.80
2019-03-10T17:12:56.926Z,11.70
2019-03-10T17:15:27.727Z,11.60
2019-03-10T17:17:57.247Z,11.60
2019-03-10T17:20:26.689Z,11.50
2019-03-10T17:22:56.216Z,11.50
2019-03-10T17:25:25.607Z,11.40
2019-03-10T17:27:55.044Z,11.30
2019-03-10T17:30:25.711Z,11.30
2019-03-10T17:32:55.471Z,11.30
2019-03-10T17:35:27.294Z,11.20
2019-03-10T17:37:56.938Z,11.20
2019-03-10T17:40:26.682Z,11.20
2019-03-10T17:42:56.735Z,11.10
2019-03-10T17:45:26.886Z,11.10
2019-03-10T17:47:56.296Z,11.10
2019-03-10T17:50:25.843Z,11.10
2019-03-10T17:52:55.233Z,11.10
2019-03-10T17:55:25.582Z,11.20
2019-03-10T17:57:56.578Z,11.20
2019-03-10T18:00:27.883Z,11.20
2019-03-10T18:02:57.948Z,11.20
2019-03-10T18:05:27.493Z,10.70
2019-03-10T18:07:56.882Z,9.50
2019-03-10T18:10:26.326Z,8.90
2019-03-10T18:12:55.879Z,8.40
2019-03-10T18:15:25.460Z,8.00
2019-03-10T18:17:55.033Z,7.60
2019-03-10T18:20:24.751Z,7.40
2019-03-10T18:22:54.110Z,7.40
2019-03-10T18:25:23.778Z,7.50
2019-03-10T18:27:53.297Z,7.70
2019-03-10T18:30:26.641Z,7.70
2019-03-10T18:32:56.041Z,7.70
2019-03-10T18:35:25.460Z,7.80
2019-03-10T18:37:54.931Z,7.90
2019-03-10T18:40:26.396Z,7.90
2019-03-10T18:42:55.868Z,7.90
2019-03-10T18:45:25.302Z,7.90
2019-03-10T18:47:54.700Z,7.90
2019-03-10T18:50:25.529Z,7.90
2019-03-10T18:52:55.023Z,7.90
2019-03-10T18:55:24.863Z,7.90
2019-03-10T18:57:54.266Z,7.90
2019-03-10T19:00:33.071Z,7.80
2019-03-10T19:03:02.470Z,7.80
2019-03-10T19:05:31.861Z,7.70
2019-03-10T19:08:01.300Z,7.60
2019-03-10T19:10:30.688Z,7.60
2019-03-10T19:13:00.043Z,7.50
2019-03-10T19:15:29.494Z,7.40
2019-03-10T19:17:58.928Z,7.50
2019-03-10T19:20:28.332Z,7.40
2019-03-10T19:22:57.903Z,7.40
2019-03-10T19:25:27.297Z,7.50
2019-03-10T19:27:56.668Z,7.50
2019-03-10T19:30:26.047Z,7.50
2019-03-10T19:32:55.455Z,7.40
2019-03-10T19:35:24.935Z,7.40
2019-03-10T19:37:54.398Z,7.40
2019-03-10T19:40:24.441Z,7.40
2019-03-10T19:42:55.448Z,7.40
2019-03-10T19:45:25.182Z,7.50
2019-03-10T19:47:54.644Z,7.50
2019-03-10T19:50:28.097Z,7.60
2019-03-10T19:52:57.690Z,7.70
2019-03-10T19:55:27.112Z,7.70
2019-03-10T19:57:56.560Z,7.70
2019-03-10T20:00:26.241Z,7.70
2019-03-10T20:02:55.832Z,7.60
2019-03-10T20:05:25.212Z,7.40
2019-03-10T20:07:54.720Z,7.10
2019-03-10T20:10:24.575Z,7.00
2019-03-10T20:12:54.124Z,6.80
2019-03-10T20:15:24.581Z,6.80
2019-03-10T20:17:54.019Z,6.90
2019-03-10T20:20:31.537Z,6.90
2019-03-10T20:23:01.376Z,6.70
2019-03-10T20:25:31.054Z,6.40
2019-03-10T20:28:02.123Z,6.20
2019-03-10T20:30:31.554Z,6.20
2019-03-10T20:33:01.163Z,6.20
2019-03-10T20:35:30.641Z,6.20
2019-03-10T20:38:01.759Z,6.00
2019-03-10T20:40:31.293Z,5.90
2019-03-10T20:43:00.691Z,5.90
2019-03-10T20:45:30.157Z,5.80
2019-03-10T20:48:00.025Z,5.80
2019-03-10T20:50:29.519Z,5.70
2019-03-10T20:52:59.190Z,5.60
2019-03-10T20:55:28.632Z,5.50
2019-03-10T20:57:58.209Z,5.40
2019-03-10T21:00:33.821Z,5.40
2019-03-10T21:03:03.211Z,5.40
2019-03-10T21:05:34.399Z,5.50
2019-03-10T21:08:03.802Z,5.50
2019-03-10T21:10:33.277Z,5.50
2019-03-10T21:13:02.650Z,5.40
2019-03-10T21:15:32.039Z,5.40
2019-03-10T21:18:01.428Z,5.40
2019-03-10T21:20:30.847Z,5.40
2019-03-10T21:23:00.230Z,5.40
2019-03-10T21:25:30.858Z,5.40
2019-03-10T21:28:00.219Z,5.40
2019-03-10T21:30:32.098Z,5.40
2019-03-10T21:33:01.574Z,5.40
2019-03-10T21:35:33.453Z,5.40
2019-03-10T21:38:03.287Z,5.50
2019-03-10T21:40:33.735Z,5.50
2019-03-10T21:43:03.187Z,5.50
2019-03-10T21:45:33.299Z,5.50
2019-03-10T21:48:02.746Z,5.50
2019-03-10T21:50:32.129Z,5.50
2019-03-10T21:53:01.517Z,5.50
2019-03-10T21:55:30.894Z,5.50
2019-03-10T21:58:00.292Z,5.50
2019-03-10T22:00:29.676Z,5.40
2019-03-10T22:02:59.053Z,5.40
2019-03-10T22:05:28.434Z,5.40
2019-03-10T22:08:01.018Z,5.50
2019-03-10T22:10:30.710Z,5.50
2019-03-10T22:13:00.882Z,5.50
2019-03-10T22:15:41.124Z,5.50
2019-03-10T22:18:04.230Z,5.60
2019-03-10T22:20:33.660Z,5.60
2019-03-10T22:23:17.430Z,5.60
2019-03-10T22:25:53.178Z,5.70
2019-03-10T22:28:22.568Z,5.70
2019-03-10T22:30:51.988Z,5.70
2019-03-10T22:33:21.415Z,5.70
2019-03-10T22:35:50.790Z,5.70
2019-03-10T22:38:20.174Z,5.70
2019-03-10T22:40:49.544Z,5.70
2019-03-10T22:43:18.928Z,5.70
2019-03-10T22:45:48.281Z,5.70
2019-03-10T22:48:17.665Z,5.70
2019-03-10T22:50:47.038Z,5.70
2019-03-10T22:53:16.470Z,5.70
2019-03-10T22:55:45.877Z,5.80
2019-03-10T22:58:15.294Z,5.80
2019-03-10T23:00:46.361Z,5.90
2019-03-10T23:03:17.028Z,5.80
2019-03-10T23:05:46.419Z,5.80
2019-03-10T23:08:15.796Z,5.80
2019-03-10T23:10:45.276Z,5.70
2019-03-10T23:13:14.677Z,5.70
2019-03-10T23:15:44.120Z,5.60
2019-03-10T23:18:13.502Z,5.50
2019-03-10T23:20:42.954Z,5.50
2019-03-10T23:23:12.360Z,5.50
2019-03-10T23:25:41.727Z,5.40
2019-03-10T23:28:11.185Z,5.30
2019-03-10T23:30:40.622Z,5.20
2019-03-10T23:33:09.940Z,5.30
2019-03-10T23:35:39.493Z,5.20
2019-03-10T23:38:08.951Z,5.20
2019-03-10T23:40:38.340Z,5.10
2019-03-10T23:43:07.791Z,5.00
2019-03-10T23:45:37.234Z,5.00
2019-03-10T23:48:06.689Z,5.00
2019-03-10T23:50:36.076Z,5.00
2019-03-10T23:53:05.451Z,4.90
2019-03-10T23:55:34.830Z,4.90
2019-03-10T23:58:04.290Z,4.90
